Time;durP1;ratioP1;P1;durP2;ratioP2;P2;SDS_P1;SDS_P2;PMS_P1;PMS_P2;Temp;Humidity;BMP_temperature;BMP_pressure;BME280_temperature;BME280_humidity;BME280_pressure;Samples;Min_cycle;Max_cycle;Signal;HPM_P1;HPM_P2
2021/03/28 00:04:45;;;;;;;5.23;3.50;;;9.50;63.90;;;;;;10508338;28;20220;-77
2021/03/28 00:09:53;;;;;;;4.30;3.90;;;9.50;64.10;;;;;;10498131;28;20656;-77
2021/03/28 00:15:01;;;;;;;4.90;3.30;;;9.40;64.60;;;;;;10498119;28;20216;-79
2021/03/28 00:20:22;;;;;;;4.60;2.70;;;9.30;65.10;;;;;;10519727;28;20411;-77
2021/03/28 00:25:37;;;;;;;7.73;3.07;;;9.20;65.30;;;;;;10522449;28;20215;-78
2021/03/28 00:30:41;;;;;;;5.33;2.33;;;9.10;66.10;;;;;;10499379;28;20200;-77
2021/03/28 00:35:52;;;;;;;3.40;2.37;;;9.00;65.80;;;;;;10513194;28;20306;-77
2021/03/28 00:41:12;;;;;;;5.00;2.93;;;8.80;66.20;;;;;;10513682;28;20276;-77
2021/03/28 00:46:32;;;;;;;5.63;2.40;;;8.70;66.30;;;;;;10541473;28;20212;-77
2021/03/28 00:51:36;;;;;;;4.23;2.60;;;8.50;66.90;;;;;;10495352;28;20224;-78
2021/03/28 00:56:41;;;;;;;3.90;2.50;;;8.40;67.40;;;;;;10491656;28;20216;-77
2021/03/28 01:02:14;;;;;;;6.83;2.53;;;8.30;67.50;;;;;;10488833;28;20188;-78
2021/03/28 01:07:29;;;;;;;4.00;2.17;;;8.30;67.80;;;;;;10499207;28;20200;-77
2021/03/28 01:13:04;;;;;;;9.80;2.50;;;8.20;68.40;;;;;;10527971;28;20310;-78
2021/03/28 01:18:09;;;;;;;3.03;2.13;;;8.10;68.00;;;;;;10488137;28;20197;-77
2021/03/28 01:23:17;;;;;;;3.63;2.17;;;8.10;68.50;;;;;;10493417;28;21192;-78
2021/03/28 01:28:24;;;;;;;2.50;2.30;;;8.10;69.00;;;;;;10516157;28;20288;-77
2021/03/28 01:33:31;;;;;;;4.63;2.40;;;8.10;69.00;;;;;;10512559;28;20235;-78
2021/03/28 01:38:38;;;;;;;2.30;2.10;;;8.00;68.90;;;;;;10515179;28;20287;-77
2021/03/28 01:43:52;;;;;;;6.00;2.63;;;7.90;69.50;;;;;;10501197;28;20247;-77
2021/03/28 01:48:56;;;;;;;3.87;2.80;;;7.90;69.80;;;;;;10513419;28;20200;-77
2021/03/28 01:54:05;;;;;;;6.57;2.83;;;7.80;70.10;;;;;;10491575;28;20228;-78
2021/03/28 01:59:21;;;;;;;6.30;2.97;;;7.80;69.80;;;;;;10486731;28;20663;-77
2021/03/28 02:04:33;;;;;;;6.23;3.00;;;7.80;70.10;;;;;;10494439;28;20643;-79
2021/03/28 02:09:46;;;;;;;3.37;2.17;;;7.80;70.30;;;;;;10481161;28;20195;-79
2021/03/28 02:15:11;;;;;;;4.60;2.73;;;7.80;70.90;;;;;;10491663;28;20215;-80
2021/03/28 02:20:39;;;;;;;3.70;2.77;;;7.80;70.50;;;;;;10495880;28;20207;-79
2021/03/28 02:25:48;;;;;;;5.40;2.30;;;7.80;70.50;;;;;;10504694;28;20226;-80
2021/03/28 02:30:57;;;;;;;3.87;2.50;;;7.80;70.90;;;;;;10493591;28;20227;-79
2021/03/28 02:36:14;;;;;;;4.67;2.53;;;7.80;71.00;;;;;;10502329;22;20224;-79
2021/03/28 02:41:20;;;;;;;3.23;2.03;;;7.90;71.20;;;;;;10486172;28;20546;-80
2021/03/28 02:46:42;;;;;;;3.73;2.03;;;7.90;71.50;;;;;;10501586;28;20217;-80
2021/03/28 02:52:19;;;;;;;2.50;2.30;;;7.90;71.40;;;;;;10491477;28;20304;-79
2021/03/28 02:57:47;;;;;;;2.90;2.20;;;7.80;71.30;;;;;;10432146;28;20274;-81
2021/03/28 03:03:18;;;;;;;4.80;2.43;;;7.80;71.80;;;;;;10472305;28;20627;-80
2021/03/28 03:08:27;;;;;;;3.80;2.43;;;7.80;71.80;;;;;;10516705;28;20220;-79
2021/03/28 03:13:55;;;;;;;4.27;2.17;;;7.80;72.30;;;;;;10498572;28;20253;-81
2021/03/28 03:19:34;;;;;;;3.13;2.20;;;7.70;72.60;;;;;;10486220;28;20628;-79
2021/03/28 03:25:17;;;;;;;2.50;1.80;;;7.60;73.00;;;;;;10509287;28;20299;-80
2021/03/28 03:30:37;;;;;;;4.63;2.63;;;7.60;73.30;;;;;;10473562;28;20273;-79
2021/03/28 03:35:52;;;;;;;6.17;2.60;;;7.50;73.70;;;;;;10503037;28;20223;-79
2021/03/28 03:41:18;;;;;;;3.37;2.23;;;7.40;73.70;;;;;;10503547;28;20276;-79
2021/03/28 03:46:35;;;;;;;3.33;2.33;;;7.30;74.00;;;;;;10503699;28;20307;-79
2021/03/28 03:52:00;;;;;;;1.90;1.80;;;7.30;74.20;;;;;;10505081;28;20220;-78
2021/03/28 03:57:13;;;;;;;5.40;2.53;;;7.30;74.30;;;;;;10505767;28;20248;-79
2021/03/28 04:02:24;;;;;;;4.37;2.40;;;7.20;74.70;;;;;;10502754;28;20196;-79
2021/03/28 04:07:59;;;;;;;2.90;2.40;;;7.20;74.50;;;;;;10502039;28;20303;-78
2021/03/28 04:13:27;;;;;;;2.60;1.87;;;7.10;74.60;;;;;;10494753;28;20253;-79
2021/03/28 04:19:08;;;;;;;4.53;2.80;;;7.10;74.50;;;;;;10492774;28;20609;-80
2021/03/28 04:24:26;;;;;;;3.57;2.73;;;7.10;74.50;;;;;;10309623;28;20231;-77
2021/03/28 04:29:29;;;;;;;4.57;2.60;;;7.10;74.00;;;;;;10450430;28;20292;-81
2021/03/28 04:34:39;;;;;;;8.30;3.00;;;7.10;74.50;;;;;;10503545;28;20217;-78
2021/03/28 04:40:03;;;;;;;4.70;2.40;;;7.10;74.40;;;;;;10506216;28;20219;-79
2021/03/28 04:45:41;;;;;;;3.50;2.20;;;7.10;74.50;;;;;;10511119;28;20743;-79
2021/03/28 04:51:02;;;;;;;3.47;2.03;;;7.20;74.60;;;;;;10515204;28;20213;-79
2021/03/28 04:56:34;;;;;;;5.50;3.10;;;7.20;74.80;;;;;;10505041;28;20220;-80
2021/03/28 05:01:42;;;;;;;4.60;2.00;;;7.20;75.00;;;;;;10502248;28;20362;-80
2021/03/28 05:07:21;;;;;;;4.67;2.47;;;7.10;74.60;;;;;;10512967;28;20227;-80
2021/03/28 05:13:05;;;;;;;6.87;2.47;;;7.10;75.10;;;;;;10488927;28;20224;-79
2021/03/28 05:18:47;;;;;;;4.70;2.47;;;7.00;75.60;;;;;;10465276;28;20675;-79
2021/03/28 05:24:33;;;;;;;4.20;2.30;;;7.00;76.00;;;;;;10500788;28;20537;-79
2021/03/28 05:30:00;;;;;;;3.83;2.23;;;7.00;76.30;;;;;;10497649;28;20303;-79
2021/03/28 05:35:19;;;;;;;3.53;2.27;;;7.00;76.60;;;;;;10497920;28;20224;-78
2021/03/28 05:41:05;;;;;;;4.93;3.10;;;6.90;77.10;;;;;;10499201;28;20279;-80
2021/03/28 05:46:36;;;;;;;7.30;3.03;;;6.80;77.60;;;;;;10486609;28;20216;-79
2021/03/28 05:52:03;;;;;;;4.33;2.73;;;6.80;77.30;;;;;;10499266;28;20224;-80
2021/03/28 05:57:39;;;;;;;4.70;2.67;;;6.90;77.40;;;;;;10490966;28;20616;-79
2021/03/28 06:03:16;;;;;;;5.07;2.50;;;7.10;77.30;;;;;;10499583;28;20197;-81
2021/03/28 06:08:55;;;;;;;11.93;2.90;;;7.20;77.00;;;;;;10497761;28;20197;-79
2021/03/28 06:14:38;;;;;;;3.50;2.27;;;7.30;77.10;;;;;;10482253;28;20228;-79
2021/03/28 06:20:08;;;;;;;4.77;2.47;;;7.30;76.30;;;;;;10498378;28;20200;-79
2021/03/28 06:25:47;;;;;;;3.83;3.00;;;7.30;76.40;;;;;;10499652;28;20247;-80
2021/03/28 06:31:14;;;;;;;3.07;2.20;;;7.20;77.00;;;;;;10498062;28;20561;-79
2021/03/28 06:36:55;;;;;;;3.43;2.27;;;7.20;77.10;;;;;;10494026;28;20279;-79
2021/03/28 06:42:27;;;;;;;2.83;2.63;;;7.30;77.80;;;;;;10481901;28;20303;-80
2021/03/28 06:47:58;;;;;;;4.00;3.10;;;7.40;77.40;;;;;;10493268;28;20285;-77
2021/03/28 06:53:44;;;;;;;6.17;3.07;;;7.70;76.70;;;;;;10485268;28;20270;-79
2021/03/28 06:59:34;;;;;;;2.80;2.50;;;7.80;75.90;;;;;;10456703;28;20263;-79
2021/03/28 07:05:04;;;;;;;3.67;2.50;;;8.00;76.60;;;;;;10489926;28;20304;-78
2021/03/28 07:10:39;;;;;;;4.70;2.30;;;8.20;76.90;;;;;;10490759;28;20288;-79
2021/03/28 07:15:56;;;;;;;4.10;2.10;;;8.60;75.10;;;;;;10495545;28;20236;-79
2021/03/28 07:21:34;;;;;;;3.43;2.50;;;8.90;73.90;;;;;;10472541;28;20197;-78
2021/03/28 07:27:11;;;;;;;4.27;2.33;;;9.30;73.80;;;;;;10449784;28;20254;-79
2021/03/28 07:32:32;;;;;;;3.57;2.23;;;9.60;71.90;;;;;;10483254;28;20224;-78
2021/03/28 07:38:28;;;;;;;4.83;2.47;;;9.90;71.10;;;;;;10494888;28;20212;-78
2021/03/28 07:43:57;;;;;;;4.57;2.50;;;10.10;68.40;;;;;;10496924;28;20604;-79
2021/03/28 07:49:43;;;;;;;2.80;2.37;;;10.30;68.00;;;;;;10490290;28;20232;-78
2021/03/28 07:55:30;;;;;;;2.70;2.40;;;10.50;67.70;;;;;;10502967;28;20231;-78
2021/03/28 08:01:04;;;;;;;4.40;2.50;;;10.90;68.00;;;;;;10501984;28;20219;-80
2021/03/28 08:06:28;;;;;;;2.87;2.17;;;11.30;65.50;;;;;;10511685;28;20304;-80
2021/03/28 08:11:52;;;;;;;2.27;2.07;;;11.60;66.00;;;;;;10502109;28;20247;-78
2021/03/28 08:17:08;;;;;;;3.80;2.20;;;11.90;63.40;;;;;;10493968;28;20209;-79
2021/03/28 08:22:20;;;;;;;2.50;1.90;;;11.90;62.70;;;;;;10491297;28;20199;-79
2021/03/28 08:28:13;;;;;;;10.43;3.17;;;12.00;63.30;;;;;;10501150;28;20243;-79
2021/03/28 08:34:01;;;;;;;3.40;2.70;;;12.00;63.10;;;;;;10505355;28;20692;-79
2021/03/28 08:39:24;;;;;;;4.33;2.50;;;11.90;65.30;;;;;;10498112;28;20279;-78
2021/03/28 08:44:52;;;;;;;5.10;2.73;;;11.90;63.90;;;;;;10506155;28;20208;-79
2021/03/28 08:49:59;;;;;;;6.37;2.43;;;12.00;65.00;;;;;;10515949;28;20212;-79
2021/03/28 08:55:14;;;;;;;7.03;2.50;;;12.10;64.20;;;;;;10494232;28;20213;-79
2021/03/28 09:00:36;;;;;;;3.30;2.37;;;12.20;63.80;;;;;;10489473;28;20250;-77
2021/03/28 09:05:44;;;;;;;5.83;2.30;;;12.30;62.60;;;;;;10479685;28;20220;-79
2021/03/28 09:11:33;;;;;;;3.63;2.20;;;12.40;61.90;;;;;;10484848;28;20715;-78
2021/03/28 09:16:47;;;;;;;3.70;1.93;;;12.60;61.10;;;;;;10477729;28;20311;-79
2021/03/28 09:21:57;;;;;;;4.17;2.03;;;12.70;59.60;;;;;;10481953;28;20193;-79
2021/03/28 09:27:24;;;;;;;2.80;2.50;;;12.90;59.80;;;;;;10487042;28;20213;-79
2021/03/28 09:32:47;;;;;;;2.43;2.13;;;13.20;56.80;;;;;;10482201;28;20297;-79
2021/03/28 09:37:58;;;;;;;3.83;2.00;;;13.30;56.30;;;;;;10482264;28;20299;-79
2021/03/28 09:43:14;;;;;;;2.70;2.27;;;13.50;57.20;;;;;;10483006;28;20213;-79
2021/03/28 09:48:35;;;;;;;2.13;1.80;;;13.70;56.10;;;;;;10504249;28;20699;-79
2021/03/28 09:54:06;;;;;;;2.70;1.97;;;14.00;54.40;;;;;;10477990;28;20224;-80
2021/03/28 09:59:32;;;;;;;5.27;1.90;;;14.30;54.70;;;;;;10480654;28;20239;-77
2021/03/28 10:04:58;;;;;;;3.40;2.00;;;14.60;54.90;;;;;;10481468;28;20239;-78
2021/03/28 10:10:16;;;;;;;3.80;2.50;;;14.90;52.70;;;;;;10474652;28;20699;-77
2021/03/28 10:15:20;;;;;;;2.90;2.00;;;14.90;51.30;;;;;;10477761;28;20223;-77
2021/03/28 10:20:40;;;;;;;3.97;2.43;;;14.60;50.50;;;;;;10478017;28;20197;-79
2021/03/28 10:25:56;;;;;;;2.60;2.13;;;14.40;52.70;;;;;;10478167;28;20217;-78
2021/03/28 10:31:20;;;;;;;3.43;2.40;;;14.10;51.70;;;;;;10480870;28;20213;-78
2021/03/28 10:36:40;;;;;;;2.30;2.00;;;14.00;50.20;;;;;;10479333;28;20307;-79
2021/03/28 10:42:02;;;;;;;4.40;2.27;;;13.70;51.20;;;;;;10479832;28;20629;-79
2021/03/28 10:47:31;;;;;;;3.30;2.57;;;13.50;51.80;;;;;;10476369;28;20229;-79
2021/03/28 10:53:08;;;;;;;2.90;2.00;;;13.40;52.00;;;;;;10482504;28;20290;-79
2021/03/28 10:58:47;;;;;;;2.23;2.03;;;13.40;51.50;;;;;;10486506;28;20201;-79
2021/03/28 11:04:26;;;;;;;5.00;2.43;;;13.30;50.80;;;;;;10482275;28;20217;-78
2021/03/28 11:09:48;;;;;;;2.83;2.37;;;13.20;51.80;;;;;;10485445;28;20869;-79
2021/03/28 11:15:16;;;;;;;4.67;2.23;;;13.30;51.50;;;;;;10472862;28;20217;-78
2021/03/28 11:20:28;;;;;;;3.30;2.10;;;13.30;52.30;;;;;;10462314;28;20646;-79
2021/03/28 11:25:31;;;;;;;3.93;2.43;;;13.20;52.30;;;;;;10482257;28;20212;-79
2021/03/28 11:30:38;;;;;;;4.57;2.70;;;13.20;53.80;;;;;;10481085;28;20196;-79
2021/03/28 11:35:45;;;;;;;3.90;2.60;;;13.20;52.60;;;;;;10483182;28;20229;-80
2021/03/28 11:40:50;;;;;;;3.60;2.10;;;13.20;53.50;;;;;;10483166;28;20220;-79
2021/03/28 11:46:08;;;;;;;3.00;2.73;;;13.20;55.00;;;;;;10493316;28;20595;-79
2021/03/28 11:51:23;;;;;;;2.27;2.07;;;13.20;52.60;;;;;;10486018;28;20216;-78
2021/03/28 11:56:38;;;;;;;2.83;2.50;;;13.30;52.60;;;;;;10487230;28;20464;-78
2021/03/28 12:02:16;;;;;;;2.13;1.93;;;13.30;53.70;;;;;;10491990;28;20647;-78
2021/03/28 12:07:26;;;;;;;3.20;2.20;;;13.40;53.60;;;;;;10490512;28;20248;-79
2021/03/28 12:12:32;;;;;;;4.77;2.20;;;13.50;52.10;;;;;;10488793;28;20300;-79
2021/03/28 12:17:34;;;;;;;3.20;2.60;;;13.50;52.00;;;;;;10485697;28;20205;-80
2021/03/28 12:22:57;;;;;;;2.20;2.00;;;13.60;50.80;;;;;;10472068;28;20649;-79
2021/03/28 12:28:26;;;;;;;4.37;2.20;;;13.60;51.10;;;;;;10486229;28;20285;-79
2021/03/28 12:33:50;;;;;;;2.67;2.27;;;13.60;53.00;;;;;;10495883;28;20217;-79
2021/03/28 12:39:08;;;;;;;4.83;2.60;;;13.60;52.50;;;;;;10499351;28;20548;-79
2021/03/28 12:44:35;;;;;;;3.23;2.17;;;13.70;52.80;;;;;;10489520;28;20213;-79
2021/03/28 12:49:48;;;;;;;2.60;2.40;;;13.70;51.90;;;;;;10461894;28;20226;-79
2021/03/28 12:55:17;;;;;;;2.83;2.10;;;13.80;52.80;;;;;;10514826;28;20221;-79
2021/03/28 13:00:36;;;;;;;2.80;1.93;;;13.90;52.10;;;;;;10485638;28;20280;-78
2021/03/28 13:05:53;;;;;;;9.10;2.27;;;13.90;53.20;;;;;;10493051;28;20216;-79
2021/03/28 13:11:00;;;;;;;3.20;2.07;;;13.90;54.00;;;;;;10490726;28;20215;-80
2021/03/28 13:16:02;;;;;;;4.97;2.63;;;13.90;53.80;;;;;;10479951;28;20563;-79
2021/03/28 13:21:11;;;;;;;4.13;2.57;;;14.00;51.20;;;;;;10499237;28;20203;-78
2021/03/28 13:26:21;;;;;;;1.87;1.77;;;14.00;52.80;;;;;;10521347;28;20227;-79
2021/03/28 13:31:28;;;;;;;4.03;2.20;;;14.10;52.60;;;;;;10496884;28;20213;-79
2021/03/28 13:36:36;;;;;;;2.47;1.90;;;14.10;51.90;;;;;;10512207;28;20248;-79
2021/03/28 13:41:41;;;;;;;2.83;2.00;;;14.20;53.10;;;;;;10501407;28;20218;-79
2021/03/28 13:46:47;;;;;;;2.53;2.33;;;14.20;53.60;;;;;;10498985;28;20224;-79
2021/03/28 13:52:12;;;;;;;2.90;1.80;;;14.30;51.50;;;;;;10483373;28;20392;-79
2021/03/28 13:57:23;;;;;;;2.20;2.10;;;14.30;52.60;;;;;;10507189;28;20573;-79
2021/03/28 14:02:26;;;;;;;5.77;2.00;;;14.40;51.30;;;;;;10486684;28;20217;-79
2021/03/28 14:07:31;;;;;;;1.83;1.73;;;14.50;50.50;;;;;;10476729;28;20259;-79
2021/03/28 14:12:38;;;;;;;5.13;2.20;;;14.50;50.80;;;;;;10475655;28;20615;-78
2021/03/28 14:17:40;;;;;;;4.73;2.40;;;14.60;50.40;;;;;;10473524;28;20580;-79
2021/03/28 14:22:46;;;;;;;2.30;2.10;;;14.70;49.30;;;;;;10475513;28;20216;-79
2021/03/28 14:27:49;;;;;;;2.70;2.10;;;14.80;50.50;;;;;;10476674;28;20207;-77
2021/03/28 14:38:37;;;;;;;1.90;1.80;;;14.80;51.80;;;;;;10509166;28;20219;-81
2021/03/28 14:44:04;;;;;;;3.63;2.10;;;14.80;53.50;;;;;;10465817;28;20209;-81
2021/03/28 14:49:18;;;;;;;3.53;2.40;;;14.80;51.00;;;;;;10481563;28;20200;-81
2021/03/28 14:54:30;;;;;;;3.80;2.00;;;14.90;49.50;;;;;;10487247;28;20223;-82
2021/03/28 14:59:46;;;;;;;1.87;1.77;;;15.10;51.50;;;;;;10501446;28;20648;-81
2021/03/28 15:05:34;;;;;;;2.30;1.70;;;15.30;49.00;;;;;;10503821;28;20219;-81
2021/03/28 15:10:41;;;;;;;2.77;1.80;;;15.40;50.00;;;;;;10461462;28;20688;-82
2021/03/28 15:15:49;;;;;;;2.20;1.80;;;15.40;51.40;;;;;;10468044;28;20273;-81
2021/03/28 15:20:58;;;;;;;1.83;1.73;;;15.30;52.00;;;;;;10509259;28;20211;-81
2021/03/28 15:26:32;;;;;;;2.93;1.93;;;15.30;51.10;;;;;;10491308;28;20655;-83
2021/03/28 15:31:53;;;;;;;2.20;2.00;;;15.20;52.30;;;;;;10483969;28;20261;-80
2021/03/28 15:37:11;;;;;;;2.90;2.00;;;15.20;53.00;;;;;;10489541;28;20801;-80
2021/03/28 15:42:17;;;;;;;2.47;2.27;;;15.20;53.60;;;;;;10512056;28;20226;-80
2021/03/28 15:47:41;;;;;;;2.63;1.70;;;15.20;54.20;;;;;;10504567;28;20240;-82
2021/03/28 15:53:10;;;;;;;3.50;2.10;;;15.20;54.80;;;;;;10488627;28;20200;-81
2021/03/28 15:58:36;;;;;;;5.50;2.20;;;15.10;54.30;;;;;;10505441;28;20215;-81
2021/03/28 16:04:07;;;;;;;2.73;2.30;;;15.10;55.90;;;;;;10492050;28;20220;-81
2021/03/28 16:09:39;;;;;;;3.40;2.00;;;15.00;54.40;;;;;;10483011;28;20204;-82
2021/03/28 16:14:56;;;;;;;5.57;2.63;;;15.00;53.60;;;;;;10480207;28;20759;-82
2021/03/28 16:20:15;;;;;;;2.97;2.60;;;15.00;54.80;;;;;;10494967;28;20193;-80
2021/03/28 16:25:40;;;;;;;2.30;2.10;;;15.00;55.10;;;;;;10503243;28;20212;-82
2021/03/28 16:30:50;;;;;;;2.73;2.30;;;14.90;55.10;;;;;;10501100;28;20207;-82
2021/03/28 16:36:17;;;;;;;3.40;2.10;;;14.90;54.00;;;;;;10463742;28;20282;-80
2021/03/28 16:41:45;;;;;;;4.27;2.17;;;14.80;53.60;;;;;;10497091;28;20304;-82
2021/03/28 16:46:52;;;;;;;5.07;2.33;;;14.70;54.80;;;;;;10509702;28;20240;-82
2021/03/28 16:52:01;;;;;;;3.33;2.20;;;14.60;55.50;;;;;;10489066;28;20660;-81
2021/03/28 16:57:16;;;;;;;3.00;2.03;;;14.50;55.10;;;;;;10487568;28;20225;-81
2021/03/28 17:02:36;;;;;;;2.60;2.40;;;14.40;55.40;;;;;;10497838;28;20209;-81
2021/03/28 17:07:50;;;;;;;2.10;2.00;;;14.30;55.10;;;;;;10499628;28;20224;-82
2021/03/28 17:12:52;;;;;;;3.43;2.10;;;14.20;55.90;;;;;;10465888;28;20185;-81
2021/03/28 17:18:05;;;;;;;4.07;2.10;;;14.10;56.70;;;;;;10477464;28;20261;-80
2021/03/28 17:23:42;;;;;;;5.10;2.50;;;14.00;56.10;;;;;;10506827;28;20663;-81
2021/03/28 17:28:46;;;;;;;3.80;2.33;;;13.90;58.40;;;;;;10510945;28;20209;-80
2021/03/28 17:33:57;;;;;;;2.53;2.30;;;13.80;59.60;;;;;;10488620;28;20224;-81
2021/03/28 17:39:04;;;;;;;2.70;2.17;;;13.60;59.80;;;;;;10501029;28;20201;-82
2021/03/28 17:44:06;;;;;;;7.17;4.87;;;13.50;60.60;;;;;;10495819;28;20285;-81
2021/03/28 17:49:07;;;;;;;4.43;2.83;;;13.40;60.80;;;;;;10466751;28;20200;-82
2021/03/28 17:54:33;;;;;;;7.10;5.20;;;13.30;57.90;;;;;;10483159;28;20220;-82
2021/03/28 17:59:37;;;;;;;4.70;4.00;;;13.30;57.80;;;;;;10499587;28;20196;-80
2021/03/28 18:04:40;;;;;;;5.03;4.57;;;13.20;58.20;;;;;;10509219;28;20252;-81
2021/03/28 18:09:48;;;;;;;5.20;4.60;;;13.10;58.00;;;;;;10498334;28;20643;-81
2021/03/28 18:14:50;;;;;;;5.30;4.30;;;13.10;58.00;;;;;;10501828;28;20596;-81
2021/03/28 18:20:12;;;;;;;7.60;5.33;;;12.90;58.00;;;;;;10481937;28;20200;-80
2021/03/28 18:25:34;;;;;;;6.27;4.60;;;12.80;58.20;;;;;;10494324;28;20224;-80
2021/03/28 18:30:47;;;;;;;8.23;4.63;;;12.70;58.40;;;;;;10491616;28;20699;-80
2021/03/28 18:35:49;;;;;;;4.43;3.50;;;12.60;58.40;;;;;;10491943;28;20283;-81
2021/03/28 18:40:55;;;;;;;6.63;3.73;;;12.50;58.50;;;;;;10510889;28;20205;-81
2021/03/28 18:46:22;;;;;;;3.00;2.80;;;12.40;59.10;;;;;;10491917;28;20212;-81
2021/03/28 18:51:41;;;;;;;7.43;3.60;;;12.40;59.20;;;;;;10489723;28;20643;-81
2021/03/28 18:56:45;;;;;;;5.60;3.30;;;12.30;59.40;;;;;;10493281;28;20238;-81
2021/03/28 19:02:02;;;;;;;3.13;2.83;;;12.20;59.60;;;;;;10495880;28;20311;-81
2021/03/28 19:07:07;;;;;;;3.87;3.50;;;12.10;59.60;;;;;;10495476;28;20227;-81
2021/03/28 19:12:34;;;;;;;6.17;3.97;;;12.10;60.00;;;;;;10478754;28;20193;-81
2021/03/28 19:17:42;;;;;;;4.73;4.03;;;12.00;59.60;;;;;;10513395;28;20220;-81
2021/03/28 19:22:48;;;;;;;5.60;3.40;;;11.90;59.90;;;;;;10495061;28;20228;-80
2021/03/28 19:27:53;;;;;;;5.30;3.07;;;11.80;59.80;;;;;;10510577;28;20224;-81
2021/03/28 19:32:57;;;;;;;5.17;4.60;;;11.80;60.20;;;;;;10492416;28;20246;-81
2021/03/28 19:38:03;;;;;;;4.10;3.37;;;11.80;60.50;;;;;;10511277;28;20197;-81
2021/03/28 19:43:15;;;;;;;7.27;3.67;;;11.70;60.90;;;;;;10516392;28;20700;-81
2021/03/28 19:48:29;;;;;;;5.70;3.70;;;11.70;61.50;;;;;;10481899;28;20253;-80
2021/03/28 19:53:31;;;;;;;4.60;3.77;;;11.70;61.80;;;;;;10452993;28;20205;-81
2021/03/28 19:58:33;;;;;;;5.07;3.40;;;11.70;61.50;;;;;;10471070;28;20641;-81
2021/03/28 20:03:45;;;;;;;4.60;3.57;;;11.70;62.00;;;;;;10504603;28;20224;-79
2021/03/28 20:08:48;;;;;;;4.00;3.60;;;11.60;62.10;;;;;;10507932;28;20203;-82
2021/03/28 20:13:52;;;;;;;6.40;3.80;;;11.60;62.60;;;;;;10475387;28;20248;-80
2021/03/28 20:18:55;;;;;;;3.50;3.20;;;11.50;62.10;;;;;;10480416;28;20212;-82
2021/03/28 20:24:12;;;;;;;7.37;4.33;;;11.50;62.30;;;;;;10462973;28;20220;-81
2021/03/28 20:29:18;;;;;;;4.73;3.50;;;11.50;62.60;;;;;;10507631;28;20200;-80
2021/03/28 20:34:27;;;;;;;5.00;3.83;;;11.40;63.00;;;;;;10509506;22;20240;-80
2021/03/28 20:39:39;;;;;;;4.43;3.73;;;11.40;63.20;;;;;;10566104;28;20245;-78
2021/03/28 20:44:46;;;;;;;4.70;3.70;;;11.30;63.70;;;;;;10564776;28;20227;-78
2021/03/28 20:49:53;;;;;;;6.33;3.97;;;11.20;64.10;;;;;;10558197;28;20745;-78
2021/03/28 20:54:56;;;;;;;5.60;3.43;;;11.20;64.00;;;;;;10545885;28;20223;-78
2021/03/28 20:59:58;;;;;;;6.27;3.83;;;11.20;64.20;;;;;;10549072;28;20667;-79
2021/03/28 21:05:00;;;;;;;6.27;4.83;;;11.10;64.80;;;;;;10556631;28;20231;-78
2021/03/28 21:10:12;;;;;;;11.33;5.90;;;11.10;64.60;;;;;;10508541;28;20257;-78
2021/03/28 21:15:14;;;;;;;6.50;5.50;;;11.10;64.30;;;;;;10534530;28;20215;-79
2021/03/28 21:20:18;;;;;;;5.50;4.60;;;11.10;65.10;;;;;;10521606;28;20200;-79
2021/03/28 21:25:21;;;;;;;6.60;3.80;;;11.00;65.50;;;;;;10506560;28;20276;-78
2021/03/28 21:30:25;;;;;;;5.43;4.00;;;11.00;65.20;;;;;;10500310;28;20204;-79
2021/03/28 21:35:29;;;;;;;5.93;3.70;;;10.90;64.80;;;;;;10515726;28;20254;-79
2021/03/28 21:40:32;;;;;;;3.63;3.33;;;10.90;65.40;;;;;;10514072;28;20776;-79
2021/03/28 21:45:44;;;;;;;3.33;2.97;;;10.80;65.80;;;;;;10525368;28;20218;-78
2021/03/28 21:50:48;;;;;;;6.07;3.43;;;10.80;65.90;;;;;;10552362;28;20271;-78
2021/03/28 21:55:55;;;;;;;2.97;2.63;;;10.80;65.90;;;;;;10555084;28;20273;-79
2021/03/28 22:00:57;;;;;;;4.87;3.30;;;10.80;65.60;;;;;;10549775;28;20212;-78
2021/03/28 22:06:00;;;;;;;5.37;2.87;;;10.80;65.70;;;;;;10520912;28;20576;-78
2021/03/28 22:11:09;;;;;;;2.50;2.30;;;10.80;65.80;;;;;;10514802;28;20730;-78
2021/03/28 22:16:13;;;;;;;2.70;2.23;;;10.80;65.30;;;;;;10553912;28;20569;-79
2021/03/28 22:21:16;;;;;;;5.63;2.63;;;10.70;65.70;;;;;;10539854;28;20231;-79
2021/03/28 22:26:19;;;;;;;3.00;2.80;;;10.70;65.80;;;;;;10545613;28;20224;-78
2021/03/28 22:31:22;;;;;;;5.10;3.20;;;10.60;66.20;;;;;;10552470;28;20199;-79
2021/03/28 22:36:30;;;;;;;3.00;2.40;;;10.60;65.90;;;;;;10533299;28;20230;-78
2021/03/28 22:41:39;;;;;;;4.40;3.33;;;10.50;66.20;;;;;;10529829;28;20206;-79
2021/03/28 22:46:43;;;;;;;2.80;2.37;;;10.40;65.60;;;;;;10511481;28;20221;-79
2021/03/28 22:51:46;;;;;;;2.50;2.27;;;10.40;65.80;;;;;;10544947;28;20218;-79
2021/03/28 22:56:54;;;;;;;4.00;2.50;;;10.30;65.50;;;;;;10551577;28;20611;-78
2021/03/28 23:01:56;;;;;;;5.27;3.03;;;10.30;65.40;;;;;;10552608;28;20663;-80
2021/03/28 23:06:58;;;;;;;3.60;2.60;;;10.30;65.30;;;;;;10549778;28;20782;-78
2021/03/28 23:12:00;;;;;;;3.33;2.37;;;10.20;65.70;;;;;;10546470;28;20220;-78
2021/03/28 23:17:10;;;;;;;2.83;2.13;;;10.20;65.80;;;;;;10550013;28;20372;-79
2021/03/28 23:22:12;;;;;;;4.37;2.67;;;10.20;66.40;;;;;;10530589;28;20196;-79
2021/03/28 23:27:15;;;;;;;2.50;2.30;;;10.20;66.80;;;;;;10527006;28;20292;-78
2021/03/28 23:32:16;;;;;;;2.93;2.53;;;10.20;66.70;;;;;;10550733;28;20249;-78
2021/03/28 23:37:18;;;;;;;6.10;2.53;;;10.10;66.70;;;;;;10547027;28;20254;-80
2021/03/28 23:42:21;;;;;;;4.40;3.00;;;10.10;67.00;;;;;;10501547;28;20204;-78
2021/03/28 23:47:25;;;;;;;3.60;2.53;;;10.10;67.40;;;;;;10538003;28;20631;-79
2021/03/28 23:52:34;;;;;;;4.93;2.80;;;10.00;67.10;;;;;;10538112;28;20298;-78
2021/03/28 23:57:38;;;;;;;3.83;2.90;;;10.00;67.10;;;;;;10536266;28;20668;-79
